Time;durP1;ratioP1;P1;durP2;ratioP2;P2;SDS_P1;SDS_P2;PMS_P1;PMS_P2;Temp;Humidity;BMP_temperature;BMP_pressure;BME280_temperature;BME280_humidity;BME280_pressure;Samples;Min_cycle;Max_cycle;Signal;HPM_P1;HPM_P2
2022/06/30 00:00:50;;;;;;;8.75;8.10;;;21.00;99.90;;;;;;2077295;28;20068;-70
2022/06/30 00:01:50;;;;;;;8.23;7.53;;;21.00;99.90;;;;;;2076494;28;20026;-70
2022/06/30 00:02:51;;;;;;;8.98;8.20;;;21.00;99.90;;;;;;2077743;28;20440;-70
2022/06/30 00:03:51;;;;;;;9.23;8.52;;;20.90;99.90;;;;;;2075112;28;20033;-70
2022/06/30 00:04:52;;;;;;;9.00;8.23;;;20.90;99.90;;;;;;2077303;28;20033;-70
2022/06/30 00:05:53;;;;;;;9.23;8.52;;;20.90;99.90;;;;;;2072336;28;20021;-69
2022/06/30 00:06:54;;;;;;;9.23;8.23;;;20.90;99.90;;;;;;2074450;28;20030;-70
2022/06/30 00:07:55;;;;;;;8.73;7.93;;;20.90;99.90;;;;;;2074706;28;20037;-70
2022/06/30 00:08:56;;;;;;;9.43;8.57;;;20.90;99.90;;;;;;2075272;28;20032;-70
2022/06/30 00:09:57;;;;;;;9.70;8.20;;;20.80;99.90;;;;;;2076064;28;20022;-70
2022/06/30 00:11:06;;;;;;;9.45;8.43;;;20.80;99.90;;;;;;2076117;28;20541;-70
2022/06/30 00:12:07;;;;;;;8.90;8.13;;;20.80;99.90;;;;;;2075097;28;20020;-69
2022/06/30 00:13:08;;;;;;;9.40;8.27;;;20.80;99.90;;;;;;2077808;28;20033;-69
2022/06/30 00:14:09;;;;;;;9.02;8.10;;;20.80;99.90;;;;;;2077151;28;20041;-70
2022/06/30 00:15:10;;;;;;;8.77;8.00;;;20.80;99.90;;;;;;2076809;28;20014;-70
2022/06/30 00:16:10;;;;;;;8.98;8.10;;;20.80;99.90;;;;;;2078927;28;20052;-70
2022/06/30 00:17:11;;;;;;;8.52;7.78;;;20.70;99.90;;;;;;2075456;28;20010;-69
2022/06/30 00:18:12;;;;;;;8.73;8.02;;;20.70;99.90;;;;;;2073685;28;20025;-69
2022/06/30 00:19:12;;;;;;;8.88;8.23;;;20.70;99.90;;;;;;2073989;28;20590;-69
2022/06/30 00:20:13;;;;;;;9.07;8.23;;;20.70;99.90;;;;;;2076040;28;20021;-69
2022/06/30 00:21:13;;;;;;;8.13;7.53;;;20.70;99.90;;;;;;2075302;28;20061;-69
2022/06/30 00:22:14;;;;;;;8.57;7.88;;;20.70;99.90;;;;;;2073986;28;20022;-69
2022/06/30 00:23:15;;;;;;;9.27;7.65;;;20.60;99.90;;;;;;2073301;28;20030;-69
2022/06/30 00:24:15;;;;;;;9.93;9.13;;;20.60;99.90;;;;;;2076113;28;20033;-69
2022/06/30 00:25:17;;;;;;;9.00;8.30;;;20.60;99.90;;;;;;2074715;28;20508;-69
2022/06/30 00:26:18;;;;;;;9.52;8.73;;;20.60;99.90;;;;;;2074420;28;20378;-69
2022/06/30 00:27:19;;;;;;;8.63;7.82;;;20.60;99.90;;;;;;2072597;28;20025;-69
2022/06/30 00:28:19;;;;;;;8.57;7.78;;;20.60;99.90;;;;;;2076197;28;20059;-70
2022/06/30 00:29:20;;;;;;;8.48;7.78;;;20.60;99.90;;;;;;2076426;28;20033;-70
2022/06/30 00:30:21;;;;;;;8.88;7.97;;;20.60;99.90;;;;;;2074715;28;20033;-70
2022/06/30 00:31:21;;;;;;;8.82;8.13;;;20.50;99.90;;;;;;2076398;28;20048;-69
2022/06/30 00:32:22;;;;;;;8.98;8.25;;;20.50;99.90;;;;;;2077223;28;20500;-69
2022/06/30 00:33:23;;;;;;;9.50;8.57;;;20.50;99.90;;;;;;2076723;28;20112;-69
2022/06/30 00:34:24;;;;;;;9.15;8.35;;;20.40;99.90;;;;;;2076502;28;20021;-69
2022/06/30 00:35:26;;;;;;;8.73;8.02;;;20.40;99.90;;;;;;2077448;28;20030;-70
2022/06/30 00:36:26;;;;;;;9.63;8.82;;;20.40;99.90;;;;;;2077904;28;20030;-70
2022/06/30 00:37:27;;;;;;;9.23;8.52;;;20.40;99.90;;;;;;2075633;28;20133;-70
2022/06/30 00:38:28;;;;;;;9.75;8.85;;;20.40;99.90;;;;;;2077741;28;20025;-69
2022/06/30 00:39:29;;;;;;;9.57;8.68;;;20.40;99.90;;;;;;2076785;28;20060;-69
2022/06/30 00:40:35;;;;;;;9.25;8.45;;;20.40;99.90;;;;;;2076429;28;20053;-70
2022/06/30 00:41:40;;;;;;;10.23;9.32;;;20.40;99.90;;;;;;2075519;28;20026;-69
2022/06/30 00:42:41;;;;;;;8.98;8.27;;;20.40;99.90;;;;;;2077807;28;20508;-69
2022/06/30 00:43:43;;;;;;;9.50;8.70;;;20.40;99.90;;;;;;2076971;28;20436;-69
2022/06/30 00:44:43;;;;;;;8.95;8.13;;;20.30;99.90;;;;;;2073566;28;20026;-69
2022/06/30 00:45:46;;;;;;;9.15;8.32;;;20.30;99.90;;;;;;2077595;28;20117;-70
2022/06/30 00:46:47;;;;;;;8.52;7.82;;;20.30;99.90;;;;;;2077502;28;20021;-69
2022/06/30 00:47:48;;;;;;;8.73;7.93;;;20.30;99.90;;;;;;2079862;28;20083;-69
2022/06/30 00:48:48;;;;;;;9.23;8.52;;;20.30;99.90;;;;;;2078633;28;20485;-69
2022/06/30 00:49:49;;;;;;;8.25;7.55;;;20.30;99.90;;;;;;2079263;28;20485;-69
2022/06/30 00:50:50;;;;;;;8.45;7.75;;;20.20;99.90;;;;;;2074613;28;20026;-69
2022/06/30 00:51:51;;;;;;;8.73;8.02;;;20.20;99.90;;;;;;2076979;28;20022;-69
2022/06/30 00:52:52;;;;;;;9.07;8.32;;;20.20;99.90;;;;;;2077207;28;20064;-70
2022/06/30 00:53:56;;;;;;;9.27;8.57;;;20.20;99.90;;;;;;2078231;28;20034;-69
2022/06/30 00:54:58;;;;;;;9.48;8.68;;;20.20;99.90;;;;;;2078740;28;20025;-69
2022/06/30 00:56:01;;;;;;;9.60;8.75;;;20.20;99.90;;;;;;2067179;28;20018;-69
2022/06/30 00:57:03;;;;;;;8.98;8.18;;;20.20;99.90;;;;;;2072523;28;20444;-69
2022/06/30 00:58:07;;;;;;;9.50;8.80;;;20.10;99.90;;;;;;2079745;28;20488;-69
2022/06/30 00:59:09;;;;;;;8.48;7.78;;;20.10;99.90;;;;;;2076124;28;20266;-69
2022/06/30 01:00:12;;;;;;;9.05;8.35;;;20.10;99.90;;;;;;2078722;28;20361;-69
2022/06/30 01:01:16;;;;;;;9.27;8.57;;;20.10;99.90;;;;;;2079114;28;20049;-69
2022/06/30 01:02:18;;;;;;;10.13;9.23;;;20.10;99.90;;;;;;2079650;28;20025;-69
2022/06/30 01:03:20;;;;;;;9.73;8.93;;;20.10;99.90;;;;;;2078039;28;20029;-69
2022/06/30 01:04:21;;;;;;;9.93;9.02;;;20.10;99.90;;;;;;2078277;28;20037;-69
2022/06/30 01:05:21;;;;;;;9.23;8.27;;;20.10;99.90;;;;;;2075536;28;20025;-70
2022/06/30 01:06:22;;;;;;;9.20;8.40;;;20.00;99.90;;;;;;2074255;28;20108;-70
2022/06/30 01:07:25;;;;;;;10.65;9.63;;;20.10;99.90;;;;;;2077925;28;20033;-70
2022/06/30 01:08:26;;;;;;;10.15;9.27;;;20.00;99.90;;;;;;2076504;28;20030;-70
2022/06/30 01:13:24;;;;;;;8.25;7.55;;;19.90;99.90;;;;;;2077763;28;20041;-70
2022/06/30 01:14:25;;;;;;;8.73;8.10;;;19.90;99.90;;;;;;2077642;28;20057;-69
2022/06/30 01:15:25;;;;;;;8.73;8.02;;;19.90;99.90;;;;;;2077197;28;20022;-70
2022/06/30 01:16:26;;;;;;;9.57;8.77;;;19.80;99.90;;;;;;2078000;28;20022;-70
2022/06/30 01:17:27;;;;;;;9.20;8.52;;;19.80;99.90;;;;;;2077668;28;20018;-70
2022/06/30 01:18:27;;;;;;;9.85;9.00;;;19.80;99.90;;;;;;2078256;28;20034;-70
2022/06/30 01:19:28;;;;;;;9.88;9.07;;;19.80;99.90;;;;;;2076504;28;20053;-70
2022/06/30 01:20:31;;;;;;;9.80;8.93;;;19.80;99.90;;;;;;2076803;28;20021;-70
2022/06/30 01:21:31;;;;;;;9.35;8.65;;;19.80;99.90;;;;;;2074145;28;20139;-70
2022/06/30 01:22:32;;;;;;;9.65;8.93;;;19.80;99.90;;;;;;2076878;28;20107;-70
2022/06/30 01:23:33;;;;;;;10.85;9.90;;;19.80;99.90;;;;;;2076356;28;20034;-70
2022/06/30 01:24:33;;;;;;;9.98;9.18;;;19.80;99.90;;;;;;2078140;28;20099;-70
2022/06/30 01:25:34;;;;;;;9.90;9.10;;;19.70;99.90;;;;;;2076939;28;20030;-70
2022/06/30 01:26:35;;;;;;;10.00;9.23;;;19.70;99.90;;;;;;2078240;28;20033;-70
2022/06/30 01:27:37;;;;;;;10.55;9.65;;;19.70;99.90;;;;;;2075791;28;20098;-71
2022/06/30 01:28:37;;;;;;;10.95;9.95;;;19.70;99.90;;;;;;2076801;28;20038;-70
2022/06/30 01:29:38;;;;;;;9.93;9.05;;;19.70;99.90;;;;;;2077751;28;20037;-70
2022/06/30 01:30:41;;;;;;;8.95;8.25;;;19.70;99.90;;;;;;2077185;28;20025;-70
2022/06/30 01:31:41;;;;;;;9.32;8.63;;;19.70;99.90;;;;;;2077512;28;20538;-70
2022/06/30 01:32:42;;;;;;;9.40;8.65;;;19.70;99.90;;;;;;2077392;28;20386;-70
2022/06/30 01:33:43;;;;;;;9.90;9.13;;;19.60;99.90;;;;;;2076978;28;20030;-69
2022/06/30 01:34:44;;;;;;;9.88;8.98;;;19.60;99.90;;;;;;2072454;28;20587;-70
2022/06/30 01:35:44;;;;;;;10.20;9.30;;;19.70;99.90;;;;;;2074622;28;20076;-70
2022/06/30 01:36:45;;;;;;;11.13;10.23;;;19.60;99.90;;;;;;2076983;28;20551;-70
2022/06/30 01:37:59;;;;;;;9.50;8.75;;;19.60;99.90;;;;;;2073621;28;20085;-70
2022/06/30 01:39:00;;;;;;;10.68;9.88;;;19.60;99.90;;;;;;2075904;28;20018;-70
2022/06/30 01:40:00;;;;;;;8.45;7.85;;;19.60;99.90;;;;;;2074918;28;20029;-70
2022/06/30 01:41:01;;;;;;;9.88;9.00;;;19.50;99.90;;;;;;2076246;28;20033;-70
2022/06/30 01:42:02;;;;;;;10.43;9.43;;;19.60;99.90;;;;;;2077742;28;20023;-70
2022/06/30 01:43:11;;;;;;;10.48;9.52;;;19.50;99.90;;;;;;2076847;28;20022;-70
2022/06/30 01:44:11;;;;;;;10.20;9.40;;;19.50;99.90;;;;;;2077841;28;20499;-70
2022/06/30 01:45:12;;;;;;;9.57;8.82;;;19.50;99.90;;;;;;2076282;28;20397;-70
2022/06/30 01:46:20;;;;;;;10.63;9.73;;;19.50;99.90;;;;;;2077883;28;20036;-70
2022/06/30 01:47:21;;;;;;;11.07;10.05;;;19.50;99.90;;;;;;2077120;28;20057;-70
2022/06/30 01:48:21;;;;;;;9.93;9.13;;;19.50;99.90;;;;;;2077362;28;20029;-70
2022/06/30 01:49:22;;;;;;;9.43;8.63;;;19.40;99.90;;;;;;2078508;28;20190;-70
2022/06/30 01:50:26;;;;;;;9.52;8.80;;;19.40;99.90;;;;;;2079157;28;20077;-70
2022/06/30 01:51:27;;;;;;;8.95;8.25;;;19.40;99.90;;;;;;2077895;28;20030;-70
2022/06/30 01:52:27;;;;;;;10.32;9.48;;;19.40;99.90;;;;;;2074917;28;20037;-70
2022/06/30 01:53:28;;;;;;;10.07;9.27;;;19.40;99.90;;;;;;2078472;28;20615;-70
2022/06/30 01:54:29;;;;;;;9.85;9.15;;;19.40;99.90;;;;;;2075455;28;20021;-70
2022/06/30 01:55:30;;;;;;;9.65;8.95;;;19.40;99.90;;;;;;2074826;28;20109;-70
2022/06/30 01:56:30;;;;;;;11.18;10.15;;;19.40;99.90;;;;;;2076811;28;20017;-70
2022/06/30 01:57:31;;;;;;;11.07;9.98;;;19.40;99.90;;;;;;2079069;28;20495;-70
2022/06/30 01:58:31;;;;;;;9.88;9.18;;;19.40;99.90;;;;;;2076687;28;20101;-70
2022/06/30 01:59:32;;;;;;;9.77;9.05;;;19.40;99.90;;;;;;2076489;28;20428;-70
2022/06/30 02:00:33;;;;;;;10.80;9.90;;;19.40;99.90;;;;;;2075806;28;20022;-70
2022/06/30 02:01:35;;;;;;;9.85;9.07;;;19.40;99.90;;;;;;2074447;28;20097;-69
2022/06/30 02:02:36;;;;;;;10.57;9.68;;;19.40;99.90;;;;;;2085491;28;20079;-69
2022/06/30 02:03:36;;;;;;;11.20;10.30;;;19.30;99.90;;;;;;2085157;28;20139;-69
2022/06/30 02:04:51;;;;;;;10.88;9.45;;;19.30;99.90;;;;;;2075973;28;20124;-69
2022/06/30 02:05:51;;;;;;;10.30;9.43;;;19.30;99.90;;;;;;2075822;28;20057;-70
2022/06/30 02:06:52;;;;;;;10.75;9.85;;;19.30;99.90;;;;;;2075056;28;20500;-70
2022/06/30 02:07:53;;;;;;;11.90;10.40;;;19.30;99.90;;;;;;2076198;28;20481;-70
2022/06/30 02:08:56;;;;;;;11.20;10.30;;;19.30;99.90;;;;;;2073403;28;20445;-70
2022/06/30 02:09:57;;;;;;;10.90;10.00;;;19.30;99.90;;;;;;2073516;28;20022;-70
2022/06/30 02:10:58;;;;;;;9.23;8.43;;;19.20;99.90;;;;;;2076683;28;20030;-69
2022/06/30 02:13:18;;;;;;;11.60;10.57;;;19.20;99.90;;;;;;2075637;28;20037;-70
2022/06/30 02:14:19;;;;;;;10.63;9.75;;;19.20;99.90;;;;;;2076605;28;20026;-70
2022/06/30 02:15:23;;;;;;;10.43;9.50;;;19.20;99.90;;;;;;2074987;28;20026;-70
2022/06/30 02:16:24;;;;;;;9.63;8.88;;;19.20;99.90;;;;;;2075601;28;20030;-70
2022/06/30 02:17:24;;;;;;;10.85;9.82;;;19.20;99.90;;;;;;2074966;28;20040;-69
2022/06/30 02:18:25;;;;;;;10.43;9.43;;;19.20;99.90;;;;;;2075282;28;20116;-70
2022/06/30 02:19:25;;;;;;;10.45;9.45;;;19.20;99.90;;;;;;2073501;28;20025;-70
2022/06/30 02:20:26;;;;;;;10.73;9.65;;;19.20;99.90;;;;;;2077040;28;20739;-69
2022/06/30 02:21:27;;;;;;;10.57;9.68;;;19.20;99.90;;;;;;2077556;28;20486;-69
2022/06/30 02:22:28;;;;;;;11.75;10.75;;;19.20;99.90;;;;;;2075565;28;20029;-70
2022/06/30 02:23:28;;;;;;;11.52;10.55;;;19.20;99.90;;;;;;2077990;28;20072;-69
2022/06/30 02:24:29;;;;;;;11.15;10.13;;;19.20;99.90;;;;;;2077358;28;20397;-70
2022/06/30 02:25:31;;;;;;;11.27;10.18;;;19.20;99.90;;;;;;2077475;28;20085;-69
2022/06/30 02:26:32;;;;;;;11.35;10.40;;;19.20;99.90;;;;;;2077604;28;20034;-69
2022/06/30 02:27:33;;;;;;;11.93;10.73;;;19.20;99.90;;;;;;2073624;28;20037;-69
2022/06/30 02:28:33;;;;;;;11.20;10.30;;;19.20;99.90;;;;;;2077832;28;20025;-70
2022/06/30 02:29:34;;;;;;;11.93;10.82;;;19.20;99.90;;;;;;2078217;28;20056;-70
2022/06/30 02:30:35;;;;;;;11.85;10.75;;;19.10;99.90;;;;;;2075880;28;20026;-70
2022/06/30 02:31:35;;;;;;;11.40;10.45;;;19.10;99.90;;;;;;2076953;28;20033;-70
2022/06/30 02:32:36;;;;;;;11.68;10.45;;;19.10;99.90;;;;;;2076462;28;20025;-69
2022/06/30 02:33:37;;;;;;;11.75;10.55;;;19.10;99.90;;;;;;2075992;28;20034;-70
2022/06/30 02:34:38;;;;;;;10.40;9.50;;;19.10;99.90;;;;;;2078567;28;20030;-69
2022/06/30 02:35:38;;;;;;;11.93;10.73;;;19.10;99.90;;;;;;2077610;28;20454;-70
2022/06/30 02:36:39;;;;;;;11.40;10.48;;;19.10;99.90;;;;;;2078944;28;20029;-70
2022/06/30 02:37:40;;;;;;;12.88;10.02;;;19.00;99.90;;;;;;2078824;28;20051;-70
2022/06/30 02:38:40;;;;;;;10.60;9.70;;;19.00;99.90;;;;;;2078958;28;20101;-70
2022/06/30 02:39:41;;;;;;;12.02;10.93;;;19.00;99.90;;;;;;2076671;28;20072;-70
2022/06/30 02:40:42;;;;;;;10.70;9.93;;;19.00;99.90;;;;;;2072634;28;20026;-69
2022/06/30 02:41:42;;;;;;;11.73;10.73;;;19.00;99.90;;;;;;2076664;28;20030;-69
2022/06/30 02:42:43;;;;;;;12.07;10.88;;;19.00;99.90;;;;;;2078912;28;20021;-69
2022/06/30 02:43:44;;;;;;;11.32;10.35;;;19.00;99.90;;;;;;2077887;28;20033;-70
2022/06/30 02:44:45;;;;;;;11.98;10.93;;;19.00;99.90;;;;;;2078032;28;20025;-69
2022/06/30 02:45:45;;;;;;;11.98;10.98;;;19.00;99.90;;;;;;2076605;28;20030;-69
2022/06/30 02:46:49;;;;;;;12.80;11.57;;;18.90;99.90;;;;;;2077592;28;20289;-69
2022/06/30 02:47:51;;;;;;;11.90;10.75;;;18.90;99.90;;;;;;2073339;28;20109;-70
2022/06/30 02:48:51;;;;;;;12.32;11.27;;;18.90;99.90;;;;;;2076934;28;20496;-69
2022/06/30 02:49:52;;;;;;;11.80;10.70;;;18.90;99.90;;;;;;2077554;28;20586;-69
2022/06/30 02:50:53;;;;;;;12.07;10.88;;;18.90;99.90;;;;;;2077896;28;20022;-69
2022/06/30 02:51:53;;;;;;;12.02;10.93;;;18.90;99.90;;;;;;2078430;28;20492;-69
2022/06/30 02:52:55;;;;;;;12.77;11.50;;;18.90;99.90;;;;;;2078075;28;20041;-69
2022/06/30 02:53:56;;;;;;;11.30;10.30;;;18.90;99.90;;;;;;2070692;28;20456;-69
2022/06/30 02:54:57;;;;;;;11.52;10.48;;;18.80;99.90;;;;;;2068371;28;20036;-69
2022/06/30 02:55:57;;;;;;;11.77;10.70;;;18.80;99.90;;;;;;2074456;28;20030;-69
2022/06/30 02:56:58;;;;;;;11.70;10.65;;;18.80;99.90;;;;;;2078169;28;20018;-69
2022/06/30 02:57:59;;;;;;;12.25;11.10;;;18.80;99.90;;;;;;2078314;28;20408;-70
2022/06/30 02:58:59;;;;;;;12.10;11.00;;;18.80;99.90;;;;;;2078139;28;20018;-69
2022/06/30 03:00:00;;;;;;;11.85;10.80;;;18.80;99.90;;;;;;2078065;28;20099;-69
2022/06/30 03:01:00;;;;;;;12.45;11.25;;;18.80;99.90;;;;;;2076416;28;20037;-69
2022/06/30 03:02:01;;;;;;;10.80;9.80;;;18.80;99.90;;;;;;2075162;28;20013;-69
2022/06/30 03:03:02;;;;;;;11.85;10.52;;;18.80;99.90;;;;;;2076483;28;20091;-69
2022/06/30 03:04:03;;;;;;;12.13;10.93;;;18.80;99.90;;;;;;2076335;28;20137;-69
2022/06/30 03:05:04;;;;;;;12.73;11.45;;;18.80;99.90;;;;;;2076784;28;20053;-69
2022/06/30 03:06:06;;;;;;;12.43;10.18;;;18.70;99.90;;;;;;2076112;28;20020;-69
2022/06/30 03:07:07;;;;;;;11.80;10.60;;;18.70;99.90;;;;;;2075767;28;20473;-69
2022/06/30 03:08:08;;;;;;;11.75;10.75;;;18.70;99.90;;;;;;2077986;28;20022;-69
2022/06/30 03:09:09;;;;;;;11.48;10.57;;;18.70;99.90;;;;;;2077102;28;20023;-69
2022/06/30 03:10:09;;;;;;;10.98;10.07;;;18.70;99.90;;;;;;2075738;28;20031;-69
2022/06/30 03:11:16;;;;;;;11.20;10.25;;;18.70;99.90;;;;;;2076441;28;20049;-69
2022/06/30 03:12:16;;;;;;;11.73;10.70;;;18.60;99.90;;;;;;2076516;28;20588;-69
2022/06/30 03:13:17;;;;;;;10.88;9.98;;;18.70;99.90;;;;;;2077523;28;20482;-69
2022/06/30 03:14:18;;;;;;;12.40;11.20;;;18.70;99.90;;;;;;2077544;28;20511;-69
2022/06/30 03:15:18;;;;;;;11.55;10.65;;;18.60;99.90;;;;;;2076247;28;20430;-69
2022/06/30 03:16:20;;;;;;;11.90;10.80;;;18.60;99.90;;;;;;2077022;28;20021;-69
2022/06/30 03:17:20;;;;;;;12.57;11.00;;;18.60;99.90;;;;;;2075584;28;20030;-69
2022/06/30 03:18:21;;;;;;;10.80;9.93;;;18.60;99.90;;;;;;2076103;28;20022;-69
2022/06/30 03:19:22;;;;;;;11.60;10.40;;;18.60;99.90;;;;;;2075576;28;20504;-69
2022/06/30 03:20:23;;;;;;;11.32;10.23;;;18.60;99.90;;;;;;2075405;28;20030;-69
2022/06/30 03:21:24;;;;;;;11.80;10.73;;;18.60;99.90;;;;;;2074796;28;20099;-69
2022/06/30 03:22:24;;;;;;;12.82;11.65;;;18.60;99.90;;;;;;2077329;28;20025;-69
2022/06/30 03:23:26;;;;;;;11.50;10.60;;;18.60;99.90;;;;;;2076274;28;20552;-70
2022/06/30 03:24:27;;;;;;;11.68;10.45;;;18.60;99.90;;;;;;2077673;28;20025;-70
2022/06/30 03:25:27;;;;;;;11.38;10.48;;;18.60;99.90;;;;;;2075850;28;20887;-69
2022/06/30 03:26:28;;;;;;;11.93;10.90;;;18.50;99.90;;;;;;2075433;28;20029;-69
2022/06/30 03:27:28;;;;;;;11.65;9.73;;;18.50;99.90;;;;;;2078079;28;20029;-69
2022/06/30 03:28:29;;;;;;;12.27;10.73;;;18.50;99.90;;;;;;2075147;28;20032;-69
2022/06/30 03:29:30;;;;;;;11.10;10.15;;;18.50;99.90;;;;;;2079402;28;20036;-69
2022/06/30 03:30:30;;;;;;;11.95;10.70;;;18.50;99.90;;;;;;2076518;28;20452;-69
2022/06/30 03:31:32;;;;;;;10.90;10.00;;;18.50;99.90;;;;;;2076828;28;20026;-69
2022/06/30 03:32:32;;;;;;;12.73;11.63;;;18.50;99.90;;;;;;2075670;28;20025;-69
2022/06/30 03:33:33;;;;;;;11.77;10.73;;;18.50;99.90;;;;;;2076741;28;20121;-69
2022/06/30 03:34:34;;;;;;;11.02;10.02;;;18.50;99.90;;;;;;2077291;28;20013;-69
2022/06/30 03:35:34;;;;;;;12.38;11.20;;;18.50;99.90;;;;;;2074812;28;20537;-69
2022/06/30 03:36:35;;;;;;;11.65;10.65;;;18.50;99.90;;;;;;2075607;28;20053;-69
2022/06/30 03:37:36;;;;;;;11.50;10.55;;;18.50;99.90;;;;;;2075252;28;20030;-69
2022/06/30 03:38:36;;;;;;;12.57;11.35;;;18.40;99.90;;;;;;2076773;28;20025;-69
2022/06/30 03:39:37;;;;;;;12.52;11.32;;;18.40;99.90;;;;;;2075859;28;20032;-69
2022/06/30 03:40:38;;;;;;;11.45;10.52;;;18.40;99.90;;;;;;2076154;28;20021;-69
2022/06/30 03:41:39;;;;;;;12.57;11.38;;;18.40;99.90;;;;;;2076885;28;20045;-69
2022/06/30 03:42:39;;;;;;;13.25;12.02;;;18.40;99.90;;;;;;2076062;28;20025;-69
2022/06/30 03:43:40;;;;;;;12.82;11.63;;;18.40;99.90;;;;;;2074996;28;20036;-69
2022/06/30 03:44:41;;;;;;;12.32;11.25;;;18.40;99.90;;;;;;2076798;28;20397;-69
2022/06/30 03:45:43;;;;;;;13.25;12.10;;;18.40;99.90;;;;;;2076370;28;20017;-69
2022/06/30 03:46:43;;;;;;;12.90;11.80;;;18.40;99.90;;;;;;2078100;28;20025;-70
2022/06/30 03:47:44;;;;;;;12.05;11.00;;;18.40;99.90;;;;;;2075047;28;20062;-69
2022/06/30 03:48:45;;;;;;;12.27;11.18;;;18.40;99.90;;;;;;2075725;28;20063;-69
2022/06/30 03:49:45;;;;;;;12.60;11.45;;;18.40;99.90;;;;;;2073416;28;20112;-69
2022/06/30 03:50:46;;;;;;;12.43;11.23;;;18.40;99.90;;;;;;2076223;28;20496;-69
2022/06/30 03:51:46;;;;;;;12.15;11.15;;;18.40;99.90;;;;;;2075227;28;20084;-69
2022/06/30 03:52:47;;;;;;;12.43;11.15;;;18.40;99.90;;;;;;2073644;28;20025;-69
2022/06/30 03:53:48;;;;;;;11.98;11.07;;;18.40;99.90;;;;;;2076899;28;20439;-69
2022/06/30 03:54:48;;;;;;;12.10;10.85;;;18.40;99.90;;;;;;2075750;28;20033;-69
2022/06/30 03:55:49;;;;;;;12.95;11.65;;;18.40;99.90;;;;;;2076036;28;20140;-69
2022/06/30 03:56:50;;;;;;;12.93;11.82;;;18.40;99.90;;;;;;2077607;28;20022;-69
2022/06/30 03:57:50;;;;;;;13.07;11.88;;;18.40;99.90;;;;;;2076337;28;20558;-69
2022/06/30 03:58:51;;;;;;;12.75;11.45;;;18.40;99.90;;;;;;2075049;28;20543;-69
2022/06/30 03:59:52;;;;;;;12.43;11.40;;;18.40;99.90;;;;;;2077973;28;20028;-69
2022/06/30 04:00:53;;;;;;;12.45;11.15;;;18.50;99.90;;;;;;2072635;28;20025;-69
2022/06/30 04:01:53;;;;;;;11.82;10.82;;;18.50;99.90;;;;;;2078153;28;20029;-69
2022/06/30 04:02:54;;;;;;;12.85;11.65;;;18.50;99.90;;;;;;2077445;28;20661;-69
2022/06/30 04:03:54;;;;;;;12.43;11.38;;;18.60;99.90;;;;;;2075670;28;20080;-69
2022/06/30 04:04:55;;;;;;;11.85;10.90;;;18.70;99.90;;;;;;2076196;28;20032;-69
2022/06/30 04:05:56;;;;;;;12.00;11.00;;;18.80;99.90;;;;;;2073018;28;20370;-69
2022/06/30 04:06:57;;;;;;;11.82;10.82;;;18.80;99.90;;;;;;2076021;28;20044;-69
2022/06/30 04:07:57;;;;;;;12.48;11.48;;;18.90;99.90;;;;;;2076715;28;20033;-70
2022/06/30 04:08:58;;;;;;;12.93;11.88;;;19.00;99.90;;;;;;2076956;28;20037;-70
2022/06/30 04:09:58;;;;;;;12.80;11.48;;;19.10;99.90;;;;;;2079098;28;20473;-69
2022/06/30 04:10:59;;;;;;;12.70;11.65;;;19.20;99.90;;;;;;2076105;28;20640;-69
2022/06/30 04:12:00;;;;;;;12.38;11.18;;;19.30;99.90;;;;;;2073836;28;20747;-69
2022/06/30 04:13:00;;;;;;;12.02;10.93;;;19.40;99.90;;;;;;2078395;28;20048;-69
2022/06/30 04:14:01;;;;;;;10.93;9.95;;;19.60;99.90;;;;;;2076089;28;20088;-70
2022/06/30 04:15:02;;;;;;;12.52;11.45;;;19.70;99.90;;;;;;2078812;28;20500;-69
2022/06/30 04:16:03;;;;;;;12.63;11.48;;;19.90;99.90;;;;;;2075571;28;20030;-69
2022/06/30 04:17:04;;;;;;;11.38;10.43;;;20.10;99.90;;;;;;2075027;28;20473;-69
2022/06/30 04:18:05;;;;;;;12.73;11.55;;;20.30;99.90;;;;;;2075032;28;20021;-69
2022/06/30 04:19:05;;;;;;;12.40;11.40;;;20.50;99.90;;;;;;2076053;28;20164;-69
2022/06/30 04:20:15;;;;;;;11.23;9.88;;;20.70;99.90;;;;;;2074588;28;20511;-69
2022/06/30 04:21:16;;;;;;;11.50;10.50;;;21.00;99.90;;;;;;2075963;28;20083;-69
2022/06/30 04:22:17;;;;;;;12.98;11.48;;;21.20;99.90;;;;;;2074092;28;20022;-69
2022/06/30 04:23:17;;;;;;;11.35;10.45;;;21.40;99.90;;;;;;2079505;28;20038;-70
2022/06/30 04:24:18;;;;;;;12.68;11.48;;;21.60;99.90;;;;;;2078966;28;20075;-70
2022/06/30 04:25:20;;;;;;;12.23;11.18;;;21.70;99.90;;;;;;2079487;28;20028;-70
2022/06/30 04:26:20;;;;;;;12.77;11.60;;;21.90;99.90;;;;;;2079045;28;20057;-70
2022/06/30 04:27:21;;;;;;;12.25;11.25;;;22.10;99.90;;;;;;2078031;28;20132;-70
2022/06/30 04:28:22;;;;;;;12.35;11.35;;;22.20;99.90;;;;;;2080119;28;20029;-70
2022/06/30 04:29:22;;;;;;;13.32;12.13;;;22.30;99.90;;;;;;2076557;28;20052;-70
2022/06/30 04:33:02;;;;;;;11.65;10.55;;;22.30;99.90;;;;;;2079151;28;20061;-69
2022/06/30 04:34:02;;;;;;;10.93;10.02;;;22.20;99.90;;;;;;2077103;28;20033;-69
2022/06/30 04:35:07;;;;;;;11.32;10.32;;;22.20;99.90;;;;;;2078253;28;20029;-69
2022/06/30 04:36:08;;;;;;;11.40;10.25;;;22.10;99.90;;;;;;2075565;28;20574;-69
2022/06/30 04:37:08;;;;;;;11.65;10.55;;;22.10;99.90;;;;;;2072138;28;20662;-70
2022/06/30 04:38:09;;;;;;;11.38;10.40;;;22.10;99.90;;;;;;2071553;28;20022;-70
2022/06/30 04:39:10;;;;;;;11.00;10.00;;;22.10;99.90;;;;;;2079865;28;20495;-70
2022/06/30 04:41:30;;;;;;;12.27;11.00;;;22.10;99.90;;;;;;2077731;28;20392;-70
2022/06/30 04:42:30;;;;;;;11.23;10.30;;;22.10;99.90;;;;;;2077981;28;20029;-70
2022/06/30 04:43:31;;;;;;;10.65;9.82;;;22.10;99.90;;;;;;2079062;28;20033;-70
2022/06/30 04:44:32;;;;;;;11.23;10.23;;;22.20;99.90;;;;;;2077435;28;20489;-70
2022/06/30 04:45:32;;;;;;;9.88;9.15;;;22.20;99.90;;;;;;2075440;28;20022;-70
2022/06/30 04:46:33;;;;;;;11.63;10.70;;;22.30;99.90;;;;;;2075438;28;20041;-70
2022/06/30 04:47:35;;;;;;;11.43;10.57;;;22.30;99.90;;;;;;2079875;28;20037;-70
2022/06/30 04:48:36;;;;;;;11.70;10.55;;;22.30;99.90;;;;;;2075981;28;20026;-70
2022/06/30 04:49:36;;;;;;;11.45;10.23;;;22.40;99.90;;;;;;2079575;28;20033;-70
2022/06/30 04:50:38;;;;;;;11.00;10.10;;;22.40;99.90;;;;;;2077863;28;20033;-70
2022/06/30 04:51:39;;;;;;;10.13;9.23;;;22.50;99.90;;;;;;2079294;28;20116;-73
2022/06/30 04:52:39;;;;;;;10.55;9.65;;;22.60;99.90;;;;;;2077427;28;20086;-70
2022/06/30 04:53:40;;;;;;;11.02;9.93;;;22.60;99.90;;;;;;2078899;28;21039;-70
2022/06/30 04:54:41;;;;;;;10.35;9.55;;;22.70;99.90;;;;;;2078509;28;20116;-70
2022/06/30 04:55:41;;;;;;;10.50;9.55;;;22.70;99.90;;;;;;2076470;28;20084;-70
2022/06/30 04:56:42;;;;;;;11.65;10.65;;;22.80;99.90;;;;;;2077358;28;20060;-70
2022/06/30 04:57:42;;;;;;;10.95;10.05;;;22.80;99.90;;;;;;2078208;28;20403;-70
2022/06/30 04:58:44;;;;;;;10.23;9.43;;;22.90;99.90;;;;;;2076366;28;20063;-70
2022/06/30 04:59:44;;;;;;;10.32;9.52;;;23.00;99.90;;;;;;2078313;28;20420;-70
2022/06/30 05:00:45;;;;;;;11.02;10.13;;;23.10;99.90;;;;;;2077745;28;20056;-70
2022/06/30 05:01:46;;;;;;;11.52;10.40;;;23.10;99.90;;;;;;2078479;28;20039;-70
2022/06/30 05:02:46;;;;;;;10.85;9.80;;;23.20;99.90;;;;;;2077317;28;20635;-70
2022/06/30 05:03:47;;;;;;;12.73;10.13;;;23.30;99.90;;;;;;2078462;28;20499;-70
2022/06/30 05:04:47;;;;;;;11.52;10.45;;;23.30;99.90;;;;;;2077723;28;20087;-70
2022/06/30 05:05:48;;;;;;;10.77;9.77;;;23.40;99.90;;;;;;2076602;28;20056;-70
2022/06/30 05:06:49;;;;;;;11.55;10.57;;;23.50;99.90;;;;;;2077249;28;20034;-70
2022/06/30 05:07:49;;;;;;;10.88;9.88;;;23.60;99.90;;;;;;2077313;28;20659;-70
2022/06/30 05:08:50;;;;;;;11.50;10.40;;;23.60;99.90;;;;;;2076423;28;20556;-70
2022/06/30 05:09:50;;;;;;;11.63;10.52;;;23.70;99.90;;;;;;2076996;28;20167;-70
2022/06/30 05:10:51;;;;;;;11.60;10.70;;;23.80;99.90;;;;;;2078080;28;20036;-70
2022/06/30 05:11:52;;;;;;;11.80;10.75;;;23.90;99.90;;;;;;2076591;28;20041;-70
2022/06/30 05:12:53;;;;;;;10.27;9.48;;;23.90;99.90;;;;;;2079179;28;20037;-70
2022/06/30 05:13:53;;;;;;;10.98;10.07;;;24.00;99.90;;;;;;2076776;28;20028;-70
2022/06/30 05:14:54;;;;;;;10.65;9.73;;;24.10;99.90;;;;;;2079246;28;20108;-70
2022/06/30 05:15:54;;;;;;;11.77;10.38;;;24.10;99.90;;;;;;2077006;28;20485;-70
2022/06/30 05:16:55;;;;;;;11.10;9.93;;;24.20;99.90;;;;;;2075218;28;20140;-70
2022/06/30 05:17:55;;;;;;;10.23;9.40;;;24.30;99.90;;;;;;2072461;28;20030;-70
2022/06/30 05:18:56;;;;;;;12.43;11.27;;;24.40;99.90;;;;;;2076463;28;20106;-70
2022/06/30 05:19:57;;;;;;;11.38;10.32;;;24.50;99.90;;;;;;2075878;28;20613;-70
2022/06/30 05:20:57;;;;;;;10.40;9.40;;;24.60;99.90;;;;;;2075263;28;20445;-70
2022/06/30 05:21:59;;;;;;;11.02;10.00;;;24.70;99.90;;;;;;2075964;28;20087;-70
2022/06/30 05:22:59;;;;;;;20.52;10.80;;;24.70;99.90;;;;;;2076233;28;20033;-70